QAC78 EDDM-EIDW
Flight info
| Callsign | QAC78 |
|---|---|
| Flight time | N/A |
| Altitude | 34000 |
| Route | INPUD2N/26R INPUD Y102 ALIBU DCT MASEK DCT MAPOX DCT OTMEC DCT RAVLO Y70 OTBED L60 PENIL UL28 LELDO M145 BAGSO BAGSO4L |
| Aircraft | B77L/H-SDE1E2E3FGHIJ2J3J4J5M1RWXY/LB1D1 |
Departure
| Time | 2026-05-07 18:58 |
|---|---|
| Airport | Munich Airport (EDDM) |
Arrival
| Time | N/A |
|---|---|
| Airport | Dublin Airport (EIDW) |
| Time | Latitude | Longitude | Altitude | Speed | Heading |
|---|---|---|---|---|---|
| 2026-05-07 17:59 | 48.34872 | 11.77070 | 1489 ft | 0 kts | 353° |
| 2026-05-07 18:38 | 48.34862 | 11.77071 | 1489 ft | 2 kts | 353° |
| 2026-05-07 18:38 | 48.34847 | 11.77074 | 1489 ft | 2 kts | 353° |
| 2026-05-07 18:38 | 48.34832 | 11.77077 | 1489 ft | 2 kts | 353° |
| 2026-05-07 18:38 | 48.34817 | 11.77079 | 1489 ft | 2 kts | 353° |
| 2026-05-07 18:39 | 48.34803 | 11.77079 | 1489 ft | 2 kts | 17° |
| 2026-05-07 18:39 | 48.34789 | 11.77070 | 1489 ft | 2 kts | 40° |
| 2026-05-07 18:39 | 48.34779 | 11.77053 | 1489 ft | 2 kts | 62° |
| 2026-05-07 18:39 | 48.34774 | 11.77032 | 1489 ft | 2 kts | 84° |
| 2026-05-07 18:40 | 48.34774 | 11.77014 | 1489 ft | 0 kts | 86° |
| 2026-05-07 18:40 | 48.34773 | 11.77012 | 1489 ft | 0 kts | 86° |
| 2026-05-07 18:42 | 48.34773 | 11.77013 | 1489 ft | 0 kts | 86° |
| 2026-05-07 18:42 | 48.34774 | 11.77025 | 1489 ft | 2 kts | 82° |
| 2026-05-07 18:43 | 48.34778 | 11.77068 | 1489 ft | 5 kts | 82° |
| 2026-05-07 18:43 | 48.34784 | 11.77126 | 1489 ft | 5 kts | 83° |
| 2026-05-07 18:43 | 48.34788 | 11.77187 | 1489 ft | 5 kts | 83° |
| 2026-05-07 18:43 | 48.34793 | 11.77245 | 1489 ft | 5 kts | 83° |
| 2026-05-07 18:44 | 48.34798 | 11.77303 | 1489 ft | 5 kts | 83° |
| 2026-05-07 18:44 | 48.34797 | 11.77356 | 1489 ft | 4 kts | 114° |
| 2026-05-07 18:44 | 48.34772 | 11.77389 | 1489 ft | 5 kts | 154° |
| 2026-05-07 18:44 | 48.34730 | 11.77405 | 1489 ft | 6 kts | 170° |
| 2026-05-07 18:45 | 48.34685 | 11.77415 | 1489 ft | 7 kts | 173° |
| 2026-05-07 18:45 | 48.34640 | 11.77450 | 1489 ft | 8 kts | 120° |
| 2026-05-07 18:45 | 48.34638 | 11.77550 | 1489 ft | 10 kts | 84° |
| 2026-05-07 18:45 | 48.34647 | 11.77673 | 1488 ft | 12 kts | 83° |
| 2026-05-07 18:46 | 48.34658 | 11.77817 | 1488 ft | 14 kts | 83° |
| 2026-05-07 18:46 | 48.34671 | 11.77978 | 1487 ft | 16 kts | 83° |
| 2026-05-07 18:46 | 48.34684 | 11.78153 | 1487 ft | 17 kts | 84° |
| 2026-05-07 18:46 | 48.34698 | 11.78338 | 1487 ft | 18 kts | 83° |
| 2026-05-07 18:47 | 48.34713 | 11.78531 | 1486 ft | 18 kts | 83° |
| 2026-05-07 18:47 | 48.34729 | 11.78726 | 1485 ft | 18 kts | 83° |
| 2026-05-07 18:47 | 48.34743 | 11.78924 | 1485 ft | 19 kts | 84° |
| 2026-05-07 18:47 | 48.34759 | 11.79123 | 1484 ft | 19 kts | 83° |
| 2026-05-07 18:48 | 48.34774 | 11.79327 | 1483 ft | 19 kts | 84° |
| 2026-05-07 18:48 | 48.34781 | 11.79415 | 1482 ft | 0 kts | 83° |
| 2026-05-07 18:51 | 48.34783 | 11.79439 | 1482 ft | 4 kts | 83° |
| 2026-05-07 18:51 | 48.34788 | 11.79513 | 1482 ft | 9 kts | 83° |
| 2026-05-07 18:51 | 48.34798 | 11.79631 | 1481 ft | 13 kts | 83° |
| 2026-05-07 18:52 | 48.34810 | 11.79784 | 1481 ft | 16 kts | 83° |
| 2026-05-07 18:52 | 48.34823 | 11.79955 | 1480 ft | 15 kts | 84° |
| 2026-05-07 18:52 | 48.34835 | 11.80112 | 1480 ft | 14 kts | 83° |
| 2026-05-07 18:52 | 48.34846 | 11.80259 | 1480 ft | 13 kts | 84° |
| 2026-05-07 18:53 | 48.34856 | 11.80392 | 1480 ft | 12 kts | 88° |
| 2026-05-07 18:53 | 48.34831 | 11.80506 | 1480 ft | 11 kts | 130° |
| 2026-05-07 18:53 | 48.34765 | 11.80554 | 1480 ft | 10 kts | 171° |
| 2026-05-07 18:53 | 48.34697 | 11.80569 | 1480 ft | 9 kts | 172° |
| 2026-05-07 18:54 | 48.34636 | 11.80565 | 1480 ft | 8 kts | 198° |
| 2026-05-07 18:54 | 48.34604 | 11.80540 | 1480 ft | 0 kts | 213° |
| 2026-05-07 18:56 | 48.34596 | 11.80532 | 1480 ft | 3 kts | 213° |
| 2026-05-07 18:57 | 48.34565 | 11.80498 | 1481 ft | 7 kts | 217° |
| 2026-05-07 18:57 | 48.34515 | 11.80440 | 1481 ft | 9 kts | 221° |
| 2026-05-07 18:57 | 48.34468 | 11.80310 | 1481 ft | 25 kts | 257° |
| 2026-05-07 18:57 | 48.34420 | 11.79670 | 1482 ft | 98 kts | 265° |
| 2026-05-07 18:58 | 48.34319 | 11.78295 | 1496 ft | 162 kts | 266° |
| 2026-05-07 18:58 | 48.34209 | 11.76553 | 2018 ft | 174 kts | 269° |
| 2026-05-07 18:58 | 48.34011 | 11.74725 | 2754 ft | 183 kts | 259° |
| 2026-05-07 18:58 | 48.33798 | 11.72799 | 3284 ft | 195 kts | 266° |
| 2026-05-07 18:59 | 48.33671 | 11.70698 | 3856 ft | 207 kts | 268° |
| 2026-05-07 18:59 | 48.33719 | 11.68510 | 4396 ft | 220 kts | 285° |
| 2026-05-07 18:59 | 48.34387 | 11.66368 | 4932 ft | 236 kts | 309° |
| 2026-05-07 18:59 | 48.35695 | 11.64775 | 5460 ft | 254 kts | 334° |
| 2026-05-07 19:00 | 48.37432 | 11.64145 | 6150 ft | 267 kts | 351° |
| 2026-05-07 19:00 | 48.39272 | 11.63827 | 7016 ft | 271 kts | 351° |
| 2026-05-07 19:00 | 48.41154 | 11.63445 | 7926 ft | 273 kts | 349° |
| 2026-05-07 19:00 | 48.43008 | 11.63002 | 8748 ft | 276 kts | 344° |
| 2026-05-07 19:01 | 48.44836 | 11.62167 | 9570 ft | 277 kts | 339° |
| 2026-05-07 19:01 | 48.46656 | 11.61236 | 10380 ft | 281 kts | 338° |
| 2026-05-07 19:01 | 48.48552 | 11.60256 | 10844 ft | 297 kts | 338° |
| 2026-05-07 19:01 | 48.50565 | 11.59215 | 11329 ft | 314 kts | 339° |
| 2026-05-07 19:02 | 48.52684 | 11.58118 | 11843 ft | 330 kts | 339° |
| 2026-05-07 19:02 | 48.54891 | 11.56976 | 12371 ft | 345 kts | 339° |
| 2026-05-07 19:02 | 48.57205 | 11.55778 | 12939 ft | 360 kts | 339° |
| 2026-05-07 19:02 | 48.59623 | 11.54525 | 13519 ft | 374 kts | 339° |
| 2026-05-07 19:03 | 48.62098 | 11.53177 | 14262 ft | 383 kts | 337° |
| 2026-05-07 19:03 | 48.64563 | 11.51692 | 15189 ft | 388 kts | 336° |
| 2026-05-07 19:03 | 48.67087 | 11.50163 | 16129 ft | 393 kts | 336° |
| 2026-05-07 19:03 | 48.69623 | 11.48625 | 17036 ft | 399 kts | 336° |
| 2026-05-07 19:04 | 48.72184 | 11.47069 | 17932 ft | 403 kts | 336° |
| 2026-05-07 19:04 | 48.74789 | 11.45485 | 18867 ft | 407 kts | 336° |
| 2026-05-07 19:04 | 48.77417 | 11.43886 | 19771 ft | 411 kts | 336° |
| 2026-05-07 19:04 | 48.80056 | 11.42277 | 20592 ft | 417 kts | 336° |
| 2026-05-07 19:05 | 48.82785 | 11.40612 | 21447 ft | 421 kts | 336° |
| 2026-05-07 19:05 | 48.85489 | 11.38961 | 22268 ft | 425 kts | 336° |
| 2026-05-07 19:05 | 48.88216 | 11.37293 | 23063 ft | 430 kts | 336° |
| 2026-05-07 19:05 | 48.91009 | 11.35583 | 23824 ft | 435 kts | 336° |
| 2026-05-07 19:06 | 48.93816 | 11.33862 | 24567 ft | 439 kts | 336° |
| 2026-05-07 19:06 | 48.99544 | 11.30345 | 25961 ft | 449 kts | 336° |
| 2026-05-07 19:06 | 49.02492 | 11.28531 | 26642 ft | 454 kts | 336° |
| 2026-05-07 19:07 | 49.05448 | 11.26711 | 27327 ft | 458 kts | 336° |
| 2026-05-07 19:07 | 49.08219 | 11.25001 | 27956 ft | 462 kts | 336° |
| 2026-05-07 19:07 | 49.10977 | 11.23299 | 28577 ft | 467 kts | 336° |
| 2026-05-07 19:07 | 49.13892 | 11.21497 | 29234 ft | 471 kts | 336° |
| 2026-05-07 19:08 | 49.16757 | 11.19724 | 30005 ft | 472 kts | 336° |
| 2026-05-07 19:08 | 49.19811 | 11.17832 | 31029 ft | 468 kts | 336° |
| 2026-05-07 19:08 | 49.22827 | 11.15962 | 31875 ft | 464 kts | 336° |
| 2026-05-07 19:08 | 49.25747 | 11.14148 | 32429 ft | 463 kts | 336° |
| 2026-05-07 19:09 | 49.28792 | 11.12254 | 32824 ft | 466 kts | 336° |
| 2026-05-07 19:09 | 49.31794 | 11.10384 | 33197 ft | 469 kts | 336° |
| 2026-05-07 19:09 | 49.34901 | 11.08446 | 33606 ft | 470 kts | 336° |
| 2026-05-07 19:09 | 49.38016 | 11.06500 | 33929 ft | 473 kts | 336° |
| 2026-05-07 19:10 | 49.44238 | 11.02607 | 34032 ft | 471 kts | 336° |
| 2026-05-07 19:10 | 49.50381 | 10.98753 | 34036 ft | 471 kts | 336° |
| 2026-05-07 19:11 | 49.56635 | 10.94817 | 34034 ft | 470 kts | 336° |
| 2026-05-07 19:11 | 49.62720 | 10.90978 | 34035 ft | 471 kts | 336° |
| 2026-05-07 19:12 | 49.68802 | 10.87130 | 34024 ft | 470 kts | 336° |
| 2026-05-07 19:12 | 49.72063 | 10.85064 | 34023 ft | 470 kts | 336° |